sensor_id;sensor_type;location;lat;lon;timestamp;P1;durP1;ratioP1;P2;durP2;ratioP2
42036;SDS011;30340;52.004;5.908;2023-02-28T00:01:09;1.48;;;1.00;;
42036;SDS011;30340;52.004;5.908;2023-02-28T00:03:36;0.82;;;0.82;;
42036;SDS011;30340;52.004;5.908;2023-02-28T00:06:05;0.80;;;0.80;;
42036;SDS011;30340;52.004;5.908;2023-02-28T00:08:32;0.50;;;0.50;;
42036;SDS011;30340;52.004;5.908;2023-02-28T00:11:01;0.65;;;0.65;;
42036;SDS011;30340;52.004;5.908;2023-02-28T00:13:31;0.70;;;0.70;;
42036;SDS011;30340;52.004;5.908;2023-02-28T00:16:00;0.75;;;0.75;;
42036;SDS011;30340;52.004;5.908;2023-02-28T00:18:27;1.27;;;0.90;;
42036;SDS011;30340;52.004;5.908;2023-02-28T00:20:53;0.95;;;0.82;;
42036;SDS011;30340;52.004;5.908;2023-02-28T00:23:18;0.77;;;0.77;;
42036;SDS011;30340;52.004;5.908;2023-02-28T00:25:44;0.80;;;0.75;;
42036;SDS011;30340;52.004;5.908;2023-02-28T00:28:10;0.60;;;0.60;;
42036;SDS011;30340;52.004;5.908;2023-02-28T00:30:35;0.70;;;0.70;;
42036;SDS011;30340;52.004;5.908;2023-02-28T00:33:01;0.70;;;0.70;;
42036;SDS011;30340;52.004;5.908;2023-02-28T00:35:26;0.70;;;0.70;;
42036;SDS011;30340;52.004;5.908;2023-02-28T00:37:52;1.17;;;1.00;;
42036;SDS011;30340;52.004;5.908;2023-02-28T00:40:17;1.17;;;1.00;;
42036;SDS011;30340;52.004;5.908;2023-02-28T00:42:43;0.80;;;0.80;;
42036;SDS011;30340;52.004;5.908;2023-02-28T00:45:08;0.90;;;0.65;;
42036;SDS011;30340;52.004;5.908;2023-02-28T00:47:34;0.70;;;0.70;;
42036;SDS011;30340;52.004;5.908;2023-02-28T00:50:00;0.70;;;0.70;;
42036;SDS011;30340;52.004;5.908;2023-02-28T00:52:26;0.57;;;0.57;;
42036;SDS011;30340;52.004;5.908;2023-02-28T00:54:51;0.70;;;0.70;;
42036;SDS011;30340;52.004;5.908;2023-02-28T00:57:17;0.63;;;0.63;;
42036;SDS011;30340;52.004;5.908;2023-02-28T00:59:43;2.08;;;0.80;;
42036;SDS011;30340;52.004;5.908;2023-02-28T01:02:08;1.08;;;0.75;;
42036;SDS011;30340;52.004;5.908;2023-02-28T01:04:34;0.93;;;0.70;;
42036;SDS011;30340;52.004;5.908;2023-02-28T01:06:59;1.13;;;0.70;;
42036;SDS011;30340;52.004;5.908;2023-02-28T01:09:25;2.30;;;1.08;;
42036;SDS011;30340;52.004;5.908;2023-02-28T01:11:50;1.00;;;0.80;;
42036;SDS011;30340;52.004;5.908;2023-02-28T01:14:16;2.47;;;1.00;;
42036;SDS011;30340;52.004;5.908;2023-02-28T01:16:42;1.33;;;1.00;;
42036;SDS011;30340;52.004;5.908;2023-02-28T01:19:08;1.23;;;1.00;;
42036;SDS011;30340;52.004;5.908;2023-02-28T01:21:34;0.80;;;0.80;;
42036;SDS011;30340;52.004;5.908;2023-02-28T01:24:00;0.85;;;0.75;;
42036;SDS011;30340;52.004;5.908;2023-02-28T01:26:26;1.10;;;0.75;;
42036;SDS011;30340;52.004;5.908;2023-02-28T01:28:52;0.80;;;0.80;;
42036;SDS011;30340;52.004;5.908;2023-02-28T01:31:18;0.65;;;0.65;;
42036;SDS011;30340;52.004;5.908;2023-02-28T01:33:45;0.70;;;0.70;;
42036;SDS011;30340;52.004;5.908;2023-02-28T01:36:12;0.75;;;0.75;;
42036;SDS011;30340;52.004;5.908;2023-02-28T01:38:42;0.77;;;0.77;;
42036;SDS011;30340;52.004;5.908;2023-02-28T01:41:09;0.63;;;0.63;;
42036;SDS011;30340;52.004;5.908;2023-02-28T01:46:09;0.80;;;0.80;;
42036;SDS011;30340;52.004;5.908;2023-02-28T01:48:36;1.00;;;1.00;;
42036;SDS011;30340;52.004;5.908;2023-02-28T01:51:12;1.50;;;0.93;;
42036;SDS011;30340;52.004;5.908;2023-02-28T01:53:44;0.75;;;0.70;;
42036;SDS011;30340;52.004;5.908;2023-02-28T01:56:15;1.42;;;0.90;;
42036;SDS011;30340;52.004;5.908;2023-02-28T01:58:50;0.85;;;0.85;;
42036;SDS011;30340;52.004;5.908;2023-02-28T02:01:17;0.77;;;0.77;;
42036;SDS011;30340;52.004;5.908;2023-02-28T02:03:49;1.13;;;0.70;;
42036;SDS011;30340;52.004;5.908;2023-02-28T02:06:21;0.70;;;0.70;;
42036;SDS011;30340;52.004;5.908;2023-02-28T02:08:52;0.98;;;0.93;;
42036;SDS011;30340;52.004;5.908;2023-02-28T02:11:19;0.77;;;0.77;;
42036;SDS011;30340;52.004;5.908;2023-02-28T02:13:56;1.35;;;1.00;;
42036;SDS011;30340;52.004;5.908;2023-02-28T02:22:47;0.80;;;0.80;;
42036;SDS011;30340;52.004;5.908;2023-02-28T02:25:47;0.80;;;0.60;;
42036;SDS011;30340;52.004;5.908;2023-02-28T02:29:25;0.60;;;0.60;;
42036;SDS011;30340;52.004;5.908;2023-02-28T02:31:47;0.70;;;0.70;;
42036;SDS011;30340;52.004;5.908;2023-02-28T02:34:38;0.82;;;0.73;;
42036;SDS011;30340;52.004;5.908;2023-02-28T02:37:15;0.73;;;0.73;;
42036;SDS011;30340;52.004;5.908;2023-02-28T02:42:34;1.00;;;0.90;;
42036;SDS011;30340;52.004;5.908;2023-02-28T02:45:09;1.38;;;1.00;;
42036;SDS011;30340;52.004;5.908;2023-02-28T02:47:50;1.10;;;1.00;;
42036;SDS011;30340;52.004;5.908;2023-02-28T02:50:18;1.27;;;1.02;;
42036;SDS011;30340;52.004;5.908;2023-02-28T02:52:49;1.60;;;1.00;;
42036;SDS011;30340;52.004;5.908;2023-02-28T02:55:18;1.67;;;1.00;;
42036;SDS011;30340;52.004;5.908;2023-02-28T02:57:48;0.98;;;0.98;;
42036;SDS011;30340;52.004;5.908;2023-02-28T03:00:25;1.15;;;1.00;;
42036;SDS011;30340;52.004;5.908;2023-02-28T03:02:55;1.37;;;1.03;;
42036;SDS011;30340;52.004;5.908;2023-02-28T03:05:44;1.52;;;0.88;;
42036;SDS011;30340;52.004;5.908;2023-02-28T03:08:10;0.77;;;0.70;;
42036;SDS011;30340;52.004;5.908;2023-02-28T03:10:38;1.42;;;1.10;;
42036;SDS011;30340;52.004;5.908;2023-02-28T03:16:14;1.10;;;1.00;;
42036;SDS011;30340;52.004;5.908;2023-02-28T03:18:53;1.30;;;0.93;;
42036;SDS011;30340;52.004;5.908;2023-02-28T03:21:36;1.98;;;0.85;;
42036;SDS011;30340;52.004;5.908;2023-02-28T03:24:04;0.80;;;0.80;;
42036;SDS011;30340;52.004;5.908;2023-02-28T03:26:45;1.23;;;0.90;;
42036;SDS011;30340;52.004;5.908;2023-02-28T03:31:58;0.98;;;0.90;;
42036;SDS011;30340;52.004;5.908;2023-02-28T03:34:32;1.25;;;1.08;;
42036;SDS011;30340;52.004;5.908;2023-02-28T03:37:03;0.70;;;0.70;;
42036;SDS011;30340;52.004;5.908;2023-02-28T03:42:14;0.93;;;0.80;;
42036;SDS011;30340;52.004;5.908;2023-02-28T03:44:44;1.10;;;0.90;;
42036;SDS011;30340;52.004;5.908;2023-02-28T03:47:24;1.13;;;0.70;;
42036;SDS011;30340;52.004;5.908;2023-02-28T03:50:05;0.80;;;0.80;;
42036;SDS011;30340;52.004;5.908;2023-02-28T03:52:44;0.70;;;0.70;;
42036;SDS011;30340;52.004;5.908;2023-02-28T03:57:57;0.70;;;0.70;;
42036;SDS011;30340;52.004;5.908;2023-02-28T04:00:48;0.60;;;0.60;;
42036;SDS011;30340;52.004;5.908;2023-02-28T04:03:14;0.65;;;0.65;;
42036;SDS011;30340;52.004;5.908;2023-02-28T04:05:47;0.65;;;0.60;;
42036;SDS011;30340;52.004;5.908;2023-02-28T04:08:16;0.70;;;0.70;;
42036;SDS011;30340;52.004;5.908;2023-02-28T04:10:41;0.70;;;0.70;;
42036;SDS011;30340;52.004;5.908;2023-02-28T04:13:10;0.60;;;0.60;;
42036;SDS011;30340;52.004;5.908;2023-02-28T04:15:36;0.60;;;0.60;;
42036;SDS011;30340;52.004;5.908;2023-02-28T04:18:01;0.60;;;0.60;;
42036;SDS011;30340;52.004;5.908;2023-02-28T04:20:27;0.77;;;0.60;;
42036;SDS011;30340;52.004;5.908;2023-02-28T04:22:53;0.60;;;0.60;;
42036;SDS011;30340;52.004;5.908;2023-02-28T04:25:18;0.70;;;0.70;;
42036;SDS011;30340;52.004;5.908;2023-02-28T04:27:44;0.68;;;0.68;;
42036;SDS011;30340;52.004;5.908;2023-02-28T04:30:10;0.52;;;0.52;;
42036;SDS011;30340;52.004;5.908;2023-02-28T04:32:36;0.65;;;0.65;;
42036;SDS011;30340;52.004;5.908;2023-02-28T04:35:01;0.70;;;0.70;;
42036;SDS011;30340;52.004;5.908;2023-02-28T04:37:27;0.70;;;0.70;;
42036;SDS011;30340;52.004;5.908;2023-02-28T04:39:53;0.80;;;0.80;;
42036;SDS011;30340;52.004;5.908;2023-02-28T04:42:19;0.80;;;0.80;;
42036;SDS011;30340;52.004;5.908;2023-02-28T04:44:45;0.93;;;0.88;;
42036;SDS011;30340;52.004;5.908;2023-02-28T04:47:12;1.02;;;0.70;;
42036;SDS011;30340;52.004;5.908;2023-02-28T04:49:37;1.00;;;0.82;;
42036;SDS011;30340;52.004;5.908;2023-02-28T04:52:03;0.80;;;0.80;;
42036;SDS011;30340;52.004;5.908;2023-02-28T04:54:29;0.77;;;0.77;;
42036;SDS011;30340;52.004;5.908;2023-02-28T04:56:54;0.68;;;0.68;;
42036;SDS011;30340;52.004;5.908;2023-02-28T04:59:20;1.40;;;0.88;;
42036;SDS011;30340;52.004;5.908;2023-02-28T05:01:46;1.63;;;0.90;;
42036;SDS011;30340;52.004;5.908;2023-02-28T05:04:13;0.80;;;0.80;;
42036;SDS011;30340;52.004;5.908;2023-02-28T05:06:39;0.57;;;0.57;;
42036;SDS011;30340;52.004;5.908;2023-02-28T05:09:04;0.80;;;0.80;;
42036;SDS011;30340;52.004;5.908;2023-02-28T05:11:31;0.93;;;0.75;;
42036;SDS011;30340;52.004;5.908;2023-02-28T05:14:01;0.80;;;0.80;;
42036;SDS011;30340;52.004;5.908;2023-02-28T05:16:28;0.85;;;0.70;;
42036;SDS011;30340;52.004;5.908;2023-02-28T05:18:54;0.70;;;0.70;;
42036;SDS011;30340;52.004;5.908;2023-02-28T05:24:00;0.77;;;0.68;;
42036;SDS011;30340;52.004;5.908;2023-02-28T05:26:27;0.60;;;0.60;;
42036;SDS011;30340;52.004;5.908;2023-02-28T05:28:54;0.63;;;0.60;;
42036;SDS011;30340;52.004;5.908;2023-02-28T05:31:20;0.90;;;0.90;;
42036;SDS011;30340;52.004;5.908;2023-02-28T05:33:45;0.50;;;0.50;;
42036;SDS011;30340;52.004;5.908;2023-02-28T05:36:11;0.60;;;0.60;;
42036;SDS011;30340;52.004;5.908;2023-02-28T05:38:37;0.77;;;0.77;;
42036;SDS011;30340;52.004;5.908;2023-02-28T05:41:09;0.70;;;0.70;;
42036;SDS011;30340;52.004;5.908;2023-02-28T05:43:35;0.60;;;0.60;;
42036;SDS011;30340;52.004;5.908;2023-02-28T05:46:02;0.60;;;0.60;;
42036;SDS011;30340;52.004;5.908;2023-02-28T05:48:29;0.75;;;0.75;;
42036;SDS011;30340;52.004;5.908;2023-02-28T05:50:56;0.60;;;0.60;;
42036;SDS011;30340;52.004;5.908;2023-02-28T05:53:22;0.60;;;0.60;;
42036;SDS011;30340;52.004;5.908;2023-02-28T05:55:48;0.60;;;0.60;;
42036;SDS011;30340;52.004;5.908;2023-02-28T05:58:13;1.35;;;0.70;;
42036;SDS011;30340;52.004;5.908;2023-02-28T06:00:39;0.70;;;0.65;;
42036;SDS011;30340;52.004;5.908;2023-02-28T06:03:04;0.68;;;0.68;;
42036;SDS011;30340;52.004;5.908;2023-02-28T06:05:30;0.70;;;0.70;;
42036;SDS011;30340;52.004;5.908;2023-02-28T06:07:56;0.70;;;0.70;;
42036;SDS011;30340;52.004;5.908;2023-02-28T06:10:21;0.60;;;0.60;;
42036;SDS011;30340;52.004;5.908;2023-02-28T06:12:47;0.60;;;0.60;;
42036;SDS011;30340;52.004;5.908;2023-02-28T06:15:13;0.70;;;0.70;;
42036;SDS011;30340;52.004;5.908;2023-02-28T06:17:40;0.50;;;0.50;;
42036;SDS011;30340;52.004;5.908;2023-02-28T06:20:07;0.50;;;0.50;;
42036;SDS011;30340;52.004;5.908;2023-02-28T06:22:34;0.47;;;0.47;;
42036;SDS011;30340;52.004;5.908;2023-02-28T06:25:00;0.90;;;0.90;;
42036;SDS011;30340;52.004;5.908;2023-02-28T06:27:26;0.85;;;0.80;;
42036;SDS011;30340;52.004;5.908;2023-02-28T06:29:53;0.60;;;0.60;;
42036;SDS011;30340;52.004;5.908;2023-02-28T06:32:20;0.60;;;0.60;;
42036;SDS011;30340;52.004;5.908;2023-02-28T06:34:46;0.60;;;0.60;;
42036;SDS011;30340;52.004;5.908;2023-02-28T06:37:12;0.50;;;0.50;;
42036;SDS011;30340;52.004;5.908;2023-02-28T06:39:38;0.70;;;0.70;;
42036;SDS011;30340;52.004;5.908;2023-02-28T06:42:04;0.50;;;0.50;;
42036;SDS011;30340;52.004;5.908;2023-02-28T06:44:29;0.57;;;0.57;;
42036;SDS011;30340;52.004;5.908;2023-02-28T06:47:03;0.50;;;0.50;;
42036;SDS011;30340;52.004;5.908;2023-02-28T06:49:31;0.52;;;0.52;;
42036;SDS011;30340;52.004;5.908;2023-02-28T06:51:58;0.60;;;0.60;;
42036;SDS011;30340;52.004;5.908;2023-02-28T06:54:23;0.60;;;0.60;;
42036;SDS011;30340;52.004;5.908;2023-02-28T06:56:49;0.70;;;0.70;;
42036;SDS011;30340;52.004;5.908;2023-02-28T06:59:15;0.50;;;0.50;;
42036;SDS011;30340;52.004;5.908;2023-02-28T07:01:41;0.57;;;0.57;;
42036;SDS011;30340;52.004;5.908;2023-02-28T07:04:07;0.60;;;0.60;;
42036;SDS011;30340;52.004;5.908;2023-02-28T07:06:33;0.60;;;0.57;;
42036;SDS011;30340;52.004;5.908;2023-02-28T07:08:59;0.50;;;0.50;;
42036;SDS011;30340;52.004;5.908;2023-02-28T07:11:25;0.70;;;0.70;;
42036;SDS011;30340;52.004;5.908;2023-02-28T07:13:53;0.40;;;0.40;;
42036;SDS011;30340;52.004;5.908;2023-02-28T07:16:19;0.77;;;0.70;;
42036;SDS011;30340;52.004;5.908;2023-02-28T07:18:46;0.75;;;0.70;;
42036;SDS011;30340;52.004;5.908;2023-02-28T07:21:11;0.80;;;0.80;;
42036;SDS011;30340;52.004;5.908;2023-02-28T07:23:38;0.60;;;0.60;;
42036;SDS011;30340;52.004;5.908;2023-02-28T07:26:04;0.73;;;0.73;;
42036;SDS011;30340;52.004;5.908;2023-02-28T07:28:31;0.60;;;0.60;;
42036;SDS011;30340;52.004;5.908;2023-02-28T07:31:02;1.00;;;0.70;;
42036;SDS011;30340;52.004;5.908;2023-02-28T07:33:28;0.77;;;0.77;;
42036;SDS011;30340;52.004;5.908;2023-02-28T07:35:59;0.70;;;0.70;;
42036;SDS011;30340;52.004;5.908;2023-02-28T07:38:26;0.70;;;0.70;;
42036;SDS011;30340;52.004;5.908;2023-02-28T07:40:51;0.70;;;0.70;;
42036;SDS011;30340;52.004;5.908;2023-02-28T07:43:17;0.95;;;0.80;;
42036;SDS011;30340;52.004;5.908;2023-02-28T07:45:43;1.05;;;0.80;;
42036;SDS011;30340;52.004;5.908;2023-02-28T07:48:08;1.30;;;0.80;;
42036;SDS011;30340;52.004;5.908;2023-02-28T07:50:34;1.60;;;1.00;;
42036;SDS011;30340;52.004;5.908;2023-02-28T07:53:00;1.20;;;0.80;;
42036;SDS011;30340;52.004;5.908;2023-02-28T07:55:26;1.58;;;1.00;;
42036;SDS011;30340;52.004;5.908;2023-02-28T07:57:52;1.02;;;0.93;;
42036;SDS011;30340;52.004;5.908;2023-02-28T08:00:17;1.30;;;1.02;;
42036;SDS011;30340;52.004;5.908;2023-02-28T08:02:43;0.82;;;0.82;;
42036;SDS011;30340;52.004;5.908;2023-02-28T08:05:09;1.90;;;1.02;;
42036;SDS011;30340;52.004;5.908;2023-02-28T08:07:34;1.45;;;1.17;;
42036;SDS011;30340;52.004;5.908;2023-02-28T08:10:00;1.17;;;1.00;;
42036;SDS011;30340;52.004;5.908;2023-02-28T08:12:26;1.33;;;1.05;;
42036;SDS011;30340;52.004;5.908;2023-02-28T08:14:51;1.38;;;1.05;;
42036;SDS011;30340;52.004;5.908;2023-02-28T08:17:17;1.63;;;1.25;;
42036;SDS011;30340;52.004;5.908;2023-02-28T08:19:45;1.75;;;1.25;;
42036;SDS011;30340;52.004;5.908;2023-02-28T08:22:11;1.00;;;0.90;;
42036;SDS011;30340;52.004;5.908;2023-02-28T08:24:36;1.67;;;1.02;;
42036;SDS011;30340;52.004;5.908;2023-02-28T08:27:02;1.20;;;1.00;;
42036;SDS011;30340;52.004;5.908;2023-02-28T08:29:27;1.38;;;0.90;;
42036;SDS011;30340;52.004;5.908;2023-02-28T08:31:55;1.45;;;1.35;;
42036;SDS011;30340;52.004;5.908;2023-02-28T08:34:20;1.25;;;1.00;;
42036;SDS011;30340;52.004;5.908;2023-02-28T08:36:48;1.20;;;1.10;;
42036;SDS011;30340;52.004;5.908;2023-02-28T08:39:13;1.35;;;1.08;;
42036;SDS011;30340;52.004;5.908;2023-02-28T08:41:39;1.38;;;1.27;;
42036;SDS011;30340;52.004;5.908;2023-02-28T08:44:04;3.50;;;1.30;;
42036;SDS011;30340;52.004;5.908;2023-02-28T08:46:30;1.55;;;1.17;;
42036;SDS011;30340;52.004;5.908;2023-02-28T08:48:56;1.63;;;1.05;;
42036;SDS011;30340;52.004;5.908;2023-02-28T08:51:25;1.40;;;1.17;;
42036;SDS011;30340;52.004;5.908;2023-02-28T08:53:54;1.88;;;1.50;;
42036;SDS011;30340;52.004;5.908;2023-02-28T08:56:23;1.50;;;1.40;;
42036;SDS011;30340;52.004;5.908;2023-02-28T08:58:49;1.40;;;1.10;;
42036;SDS011;30340;52.004;5.908;2023-02-28T09:01:19;2.03;;;1.30;;
42036;SDS011;30340;52.004;5.908;2023-02-28T09:03:53;1.20;;;1.10;;
42036;SDS011;30340;52.004;5.908;2023-02-28T09:06:20;1.40;;;1.30;;
42036;SDS011;30340;52.004;5.908;2023-02-28T09:08:47;1.23;;;1.10;;
42036;SDS011;30340;52.004;5.908;2023-02-28T09:11:13;1.27;;;1.10;;
42036;SDS011;30340;52.004;5.908;2023-02-28T09:13:39;1.20;;;1.10;;
42036;SDS011;30340;52.004;5.908;2023-02-28T09:16:06;2.45;;;1.10;;
42036;SDS011;30340;52.004;5.908;2023-02-28T09:18:35;1.83;;;1.30;;
42036;SDS011;30340;52.004;5.908;2023-02-28T09:21:03;1.35;;;1.25;;
42036;SDS011;30340;52.004;5.908;2023-02-28T09:23:30;1.10;;;1.00;;
42036;SDS011;30340;52.004;5.908;2023-02-28T09:25:56;1.17;;;1.05;;
42036;SDS011;30340;52.004;5.908;2023-02-28T09:28:22;1.30;;;1.20;;
42036;SDS011;30340;52.004;5.908;2023-02-28T09:30:49;1.52;;;1.30;;
42036;SDS011;30340;52.004;5.908;2023-02-28T09:33:16;1.55;;;1.23;;
42036;SDS011;30340;52.004;5.908;2023-02-28T09:35:42;1.00;;;1.00;;
42036;SDS011;30340;52.004;5.908;2023-02-28T09:38:08;2.28;;;1.08;;
42036;SDS011;30340;52.004;5.908;2023-02-28T09:40:35;0.90;;;0.90;;
42036;SDS011;30340;52.004;5.908;2023-02-28T09:43:04;1.17;;;1.08;;
42036;SDS011;30340;52.004;5.908;2023-02-28T09:45:35;1.00;;;0.90;;
42036;SDS011;30340;52.004;5.908;2023-02-28T09:48:10;1.50;;;1.20;;
42036;SDS011;30340;52.004;5.908;2023-02-28T09:50:41;1.42;;;1.00;;
42036;SDS011;30340;52.004;5.908;2023-02-28T09:53:24;1.35;;;1.02;;
42036;SDS011;30340;52.004;5.908;2023-02-28T09:55:55;2.90;;;0.90;;
42036;SDS011;30340;52.004;5.908;2023-02-28T09:58:37;2.35;;;1.58;;
42036;SDS011;30340;52.004;5.908;2023-02-28T10:01:21;1.25;;;1.10;;
42036;SDS011;30340;52.004;5.908;2023-02-28T10:04:08;1.20;;;1.00;;
42036;SDS011;30340;52.004;5.908;2023-02-28T10:06:51;1.35;;;1.02;;
42036;SDS011;30340;52.004;5.908;2023-02-28T10:09:25;1.00;;;0.90;;
42036;SDS011;30340;52.004;5.908;2023-02-28T10:11:56;2.03;;;1.25;;
42036;SDS011;30340;52.004;5.908;2023-02-28T10:14:28;1.00;;;0.80;;
42036;SDS011;30340;52.004;5.908;2023-02-28T10:16:55;1.33;;;1.20;;
42036;SDS011;30340;52.004;5.908;2023-02-28T10:22:16;1.15;;;1.00;;
42036;SDS011;30340;52.004;5.908;2023-02-28T10:24:46;1.20;;;1.10;;
42036;SDS011;30340;52.004;5.908;2023-02-28T10:29:45;1.33;;;1.10;;
42036;SDS011;30340;52.004;5.908;2023-02-28T10:32:47;2.30;;;1.27;;
42036;SDS011;30340;52.004;5.908;2023-02-28T10:35:24;1.60;;;1.10;;
42036;SDS011;30340;52.004;5.908;2023-02-28T10:37:53;1.42;;;1.00;;
42036;SDS011;30340;52.004;5.908;2023-02-28T10:43:02;1.20;;;1.00;;
42036;SDS011;30340;52.004;5.908;2023-02-28T10:48:01;1.55;;;1.08;;
42036;SDS011;30340;52.004;5.908;2023-02-28T10:53:24;0.80;;;0.80;;
42036;SDS011;30340;52.004;5.908;2023-02-28T10:56:04;1.02;;;0.90;;
42036;SDS011;30340;52.004;5.908;2023-02-28T10:58:46;1.45;;;0.90;;
42036;SDS011;30340;52.004;5.908;2023-02-28T11:04:03;1.10;;;0.85;;
42036;SDS011;30340;52.004;5.908;2023-02-28T11:06:43;1.30;;;0.90;;
42036;SDS011;30340;52.004;5.908;2023-02-28T11:11:47;1.63;;;1.20;;
42036;SDS011;30340;52.004;5.908;2023-02-28T11:14:19;1.55;;;1.13;;
42036;SDS011;30340;52.004;5.908;2023-02-28T11:16:47;2.47;;;1.02;;
42036;SDS011;30340;52.004;5.908;2023-02-28T11:19:22;1.38;;;1.27;;
42036;SDS011;30340;52.004;5.908;2023-02-28T11:22:00;1.40;;;1.10;;
42036;SDS011;30340;52.004;5.908;2023-02-28T11:24:28;1.20;;;1.10;;
42036;SDS011;30340;52.004;5.908;2023-02-28T11:27:00;1.77;;;1.20;;
42036;SDS011;30340;52.004;5.908;2023-02-28T11:29:32;1.30;;;1.20;;
42036;SDS011;30340;52.004;5.908;2023-02-28T11:32:47;1.48;;;1.17;;
42036;SDS011;30340;52.004;5.908;2023-02-28T11:37:36;2.00;;;1.10;;
42036;SDS011;30340;52.004;5.908;2023-02-28T11:40:13;2.08;;;1.10;;
42036;SDS011;30340;52.004;5.908;2023-02-28T11:43:19;0.93;;;0.88;;
42036;SDS011;30340;52.004;5.908;2023-02-28T11:51:28;2.17;;;1.40;;
42036;SDS011;30340;52.004;5.908;2023-02-28T12:01:38;1.55;;;1.00;;
42036;SDS011;30340;52.004;5.908;2023-02-28T12:04:38;1.00;;;1.00;;
42036;SDS011;30340;52.004;5.908;2023-02-28T12:07:17;1.80;;;1.33;;
42036;SDS011;30340;52.004;5.908;2023-02-28T12:15:17;1.23;;;1.00;;
42036;SDS011;30340;52.004;5.908;2023-02-28T12:28:38;3.25;;;1.50;;
42036;SDS011;30340;52.004;5.908;2023-02-28T12:31:14;1.30;;;1.20;;
42036;SDS011;30340;52.004;5.908;2023-02-28T12:33:50;2.40;;;1.45;;
42036;SDS011;30340;52.004;5.908;2023-02-28T12:36:19;1.90;;;1.40;;
42036;SDS011;30340;52.004;5.908;2023-02-28T12:38:53;2.50;;;1.40;;
42036;SDS011;30340;52.004;5.908;2023-02-28T12:41:56;1.75;;;1.52;;
42036;SDS011;30340;52.004;5.908;2023-02-28T12:44:23;1.45;;;1.30;;
42036;SDS011;30340;52.004;5.908;2023-02-28T12:46:55;2.55;;;1.45;;
42036;SDS011;30340;52.004;5.908;2023-02-28T12:55:41;1.05;;;0.95;;
42036;SDS011;30340;52.004;5.908;2023-02-28T12:58:31;1.02;;;0.90;;
42036;SDS011;30340;52.004;5.908;2023-02-28T13:06:32;1.73;;;1.50;;
42036;SDS011;30340;52.004;5.908;2023-02-28T13:09:14;1.58;;;1.15;;
42036;SDS011;30340;52.004;5.908;2023-02-28T13:19:34;1.45;;;1.10;;
42036;SDS011;30340;52.004;5.908;2023-02-28T13:22:02;1.52;;;1.13;;
42036;SDS011;30340;52.004;5.908;2023-02-28T13:24:40;1.58;;;1.15;;
42036;SDS011;30340;52.004;5.908;2023-02-28T13:29:37;1.30;;;1.20;;
42036;SDS011;30340;52.004;5.908;2023-02-28T13:34:41;1.92;;;1.38;;
42036;SDS011;30340;52.004;5.908;2023-02-28T13:47:31;2.00;;;1.42;;
42036;SDS011;30340;52.004;5.908;2023-02-28T13:58:09;1.75;;;1.23;;
42036;SDS011;30340;52.004;5.908;2023-02-28T14:06:08;1.92;;;1.17;;
42036;SDS011;30340;52.004;5.908;2023-02-28T14:09:32;3.28;;;1.80;;
42036;SDS011;30340;52.004;5.908;2023-02-28T14:11:49;1.83;;;1.30;;
42036;SDS011;30340;52.004;5.908;2023-02-28T14:16:59;2.08;;;1.45;;
42036;SDS011;30340;52.004;5.908;2023-02-28T14:19:28;1.67;;;1.33;;
42036;SDS011;30340;52.004;5.908;2023-02-28T14:22:06;1.52;;;1.27;;
42036;SDS011;30340;52.004;5.908;2023-02-28T14:27:58;1.38;;;1.27;;
42036;SDS011;30340;52.004;5.908;2023-02-28T14:36:26;1.17;;;1.08;;
42036;SDS011;30340;52.004;5.908;2023-02-28T14:38:57;1.13;;;1.05;;
42036;SDS011;30340;52.004;5.908;2023-02-28T14:41:30;1.40;;;1.27;;
42036;SDS011;30340;52.004;5.908;2023-02-28T14:44:00;1.20;;;1.10;;
42036;SDS011;30340;52.004;5.908;2023-02-28T14:46:37;2.25;;;1.33;;
42036;SDS011;30340;52.004;5.908;2023-02-28T14:49:05;1.00;;;1.00;;
42036;SDS011;30340;52.004;5.908;2023-02-28T14:51:37;1.88;;;1.30;;
42036;SDS011;30340;52.004;5.908;2023-02-28T14:54:03;1.40;;;1.05;;
42036;SDS011;30340;52.004;5.908;2023-02-28T14:56:38;1.10;;;1.00;;
42036;SDS011;30340;52.004;5.908;2023-02-28T14:59:05;1.45;;;1.00;;
42036;SDS011;30340;52.004;5.908;2023-02-28T15:01:47;1.10;;;1.00;;
42036;SDS011;30340;52.004;5.908;2023-02-28T15:04:18;1.27;;;1.17;;
42036;SDS011;30340;52.004;5.908;2023-02-28T15:09:39;1.40;;;1.27;;
42036;SDS011;30340;52.004;5.908;2023-02-28T15:12:09;1.30;;;1.20;;
42036;SDS011;30340;52.004;5.908;2023-02-28T15:14:39;2.33;;;1.27;;
42036;SDS011;30340;52.004;5.908;2023-02-28T15:17:09;1.73;;;1.20;;
42036;SDS011;30340;52.004;5.908;2023-02-28T15:19:48;1.25;;;1.10;;
42036;SDS011;30340;52.004;5.908;2023-02-28T15:22:18;1.60;;;1.08;;
42036;SDS011;30340;52.004;5.908;2023-02-28T15:24:53;1.48;;;1.10;;
42036;SDS011;30340;52.004;5.908;2023-02-28T15:27:22;1.35;;;1.00;;
42036;SDS011;30340;52.004;5.908;2023-02-28T15:29:53;1.50;;;1.00;;
42036;SDS011;30340;52.004;5.908;2023-02-28T15:34:49;1.35;;;1.25;;
42036;SDS011;30340;52.004;5.908;2023-02-28T15:37:37;1.10;;;1.00;;
42036;SDS011;30340;52.004;5.908;2023-02-28T15:40:13;1.30;;;1.13;;
42036;SDS011;30340;52.004;5.908;2023-02-28T15:46:24;1.30;;;1.20;;
42036;SDS011;30340;52.004;5.908;2023-02-28T15:51:34;1.90;;;1.27;;
42036;SDS011;30340;52.004;5.908;2023-02-28T15:54:00;1.88;;;1.40;;
42036;SDS011;30340;52.004;5.908;2023-02-28T15:56:47;1.25;;;1.00;;
42036;SDS011;30340;52.004;5.908;2023-02-28T15:59:21;1.55;;;1.15;;
42036;SDS011;30340;52.004;5.908;2023-02-28T16:02:03;2.65;;;1.35;;
42036;SDS011;30340;52.004;5.908;2023-02-28T16:04:37;1.92;;;1.10;;
42036;SDS011;30340;52.004;5.908;2023-02-28T16:07:35;1.55;;;1.30;;
42036;SDS011;30340;52.004;5.908;2023-02-28T16:10:02;2.50;;;1.52;;
42036;SDS011;30340;52.004;5.908;2023-02-28T16:12:30;1.95;;;1.02;;
42036;SDS011;30340;52.004;5.908;2023-02-28T16:14:58;1.00;;;0.85;;
42036;SDS011;30340;52.004;5.908;2023-02-28T16:17:29;2.38;;;1.38;;
42036;SDS011;30340;52.004;5.908;2023-02-28T16:19:57;1.27;;;1.10;;
42036;SDS011;30340;52.004;5.908;2023-02-28T16:22:24;1.25;;;1.15;;
42036;SDS011;30340;52.004;5.908;2023-02-28T16:24:50;1.50;;;1.30;;
42036;SDS011;30340;52.004;5.908;2023-02-28T16:27:17;3.60;;;1.27;;
42036;SDS011;30340;52.004;5.908;2023-02-28T16:29:50;2.17;;;1.48;;
42036;SDS011;30340;52.004;5.908;2023-02-28T16:32:16;1.80;;;1.30;;
42036;SDS011;30340;52.004;5.908;2023-02-28T16:34:43;1.35;;;1.10;;
42036;SDS011;30340;52.004;5.908;2023-02-28T16:37:13;1.38;;;1.15;;
42036;SDS011;30340;52.004;5.908;2023-02-28T16:39:40;1.23;;;0.90;;
42036;SDS011;30340;52.004;5.908;2023-02-28T16:42:09;0.95;;;0.80;;
42036;SDS011;30340;52.004;5.908;2023-02-28T16:44:50;0.90;;;0.90;;
42036;SDS011;30340;52.004;5.908;2023-02-28T16:47:17;1.10;;;1.00;;
42036;SDS011;30340;52.004;5.908;2023-02-28T16:49:42;1.20;;;0.90;;
42036;SDS011;30340;52.004;5.908;2023-02-28T16:52:09;1.58;;;1.00;;
42036;SDS011;30340;52.004;5.908;2023-02-28T16:54:36;1.60;;;1.05;;
42036;SDS011;30340;52.004;5.908;2023-02-28T16:57:02;0.90;;;0.90;;
42036;SDS011;30340;52.004;5.908;2023-02-28T16:59:29;1.17;;;0.68;;
42036;SDS011;30340;52.004;5.908;2023-02-28T17:01:55;2.20;;;1.00;;
42036;SDS011;30340;52.004;5.908;2023-02-28T17:04:27;1.20;;;1.10;;
42036;SDS011;30340;52.004;5.908;2023-02-28T17:06:53;2.35;;;1.20;;
42036;SDS011;30340;52.004;5.908;2023-02-28T17:09:20;1.50;;;1.15;;
42036;SDS011;30340;52.004;5.908;2023-02-28T17:11:47;1.45;;;1.20;;
42036;SDS011;30340;52.004;5.908;2023-02-28T17:14:13;1.45;;;1.00;;
42036;SDS011;30340;52.004;5.908;2023-02-28T17:16:40;0.82;;;0.82;;
42036;SDS011;30340;52.004;5.908;2023-02-28T17:19:09;1.05;;;0.90;;
42036;SDS011;30340;52.004;5.908;2023-02-28T17:21:37;0.88;;;0.88;;
42036;SDS011;30340;52.004;5.908;2023-02-28T17:24:03;1.25;;;0.80;;
42036;SDS011;30340;52.004;5.908;2023-02-28T17:26:29;1.95;;;0.80;;
42036;SDS011;30340;52.004;5.908;2023-02-28T17:28:56;0.80;;;0.80;;
42036;SDS011;30340;52.004;5.908;2023-02-28T17:31:23;1.00;;;0.90;;
42036;SDS011;30340;52.004;5.908;2023-02-28T17:33:49;0.98;;;0.70;;